CA-0063 weather

CLOSED Buchans Airport
Buchans, Newfoundland and Labrador, Canada

Public forecast

Using degrees Celsius for public forecast. Weather courtesy of forecast.io.

METAR (pilot weather report)

Closest report is Deer Lake Airport, 30.8 nm (57.0 km) NW. Retrieved 2019/07/17 22:00 UTC (9 minutes ago):

CYDF 172200Z 21010G16KT 15SM BKN052 BKN093 24/14 A2971 RMK SC5AC2 SLP064 DENSITY ALT 1400FT

TAF (pilot weather forecast)

Closest forecast is Deer Lake Airport, 30.8 nm (57.0 km) NW. Retrieved 2019/07/17 20:42 UTC (1 hour ago):

TAF CYDF 171938Z 1720/1808 23010KT P6SM BKN080 BKN250 FM172300 22012G22KT P6SM BKN030 TEMPO 1723/1808 P6SM -SHRA OVC020 PROB30 1805/1808 1SM -SHRA BR OVC003 RMK NXT FCST BY 180200Z